Time;durP1;ratioP1;P1;durP2;ratioP2;P2;SDS_P1;SDS_P2;PMS_P1;PMS_P2;Temp;Humidity;BMP_temperature;BMP_pressure;BME280_temperature;BME280_humidity;BME280_pressure;Samples;Min_cycle;Max_cycle;Signal;HPM_P1;HPM_P2
2023/07/09 00:00:13;;;;;;;16.52;5.55;;;563.90;2432.00;;;;;;5077815;28;20477;-71
2023/07/09 00:02:39;;;;;;;13.25;5.30;;;563.80;2432.00;;;;;;5075726;28;20086;-72
2023/07/09 00:05:09;;;;;;;10.30;5.40;;;563.80;2432.00;;;;;;5081599;28;20024;-71
2023/07/09 00:07:36;;;;;;;10.43;4.75;;;563.80;2432.00;;;;;;5081600;28;20025;-71
2023/07/09 00:13:44;;;;;;;8.88;4.93;;;563.70;2432.00;;;;;;5032682;23;20129;-73
2023/07/09 00:16:19;;;;;;;14.20;5.15;;;563.70;2432.00;;;;;;4947851;28;20263;-74
2023/07/09 00:18:45;;;;;;;17.50;5.88;;;563.70;2432.00;;;;;;4932173;29;20023;-72
2023/07/09 00:21:11;;;;;;;13.20;5.25;;;563.70;2432.00;;;;;;4954264;28;20057;-74
2023/07/09 00:23:39;;;;;;;12.57;6.10;;;563.60;2432.00;;;;;;4954447;29;20508;-74
2023/07/09 00:26:13;;;;;;;21.60;6.32;;;563.50;2432.00;;;;;;4943985;29;20501;-73
2023/07/09 00:28:40;;;;;;;11.30;5.18;;;563.50;2432.00;;;;;;4935566;29;20154;-79
2023/07/09 00:31:16;;;;;;;9.13;4.85;;;563.40;2432.00;;;;;;4935274;29;20020;-73
2023/07/09 00:33:42;;;;;;;11.70;4.43;;;563.30;2432.00;;;;;;4935274;29;20023;-74
2023/07/09 00:36:28;;;;;;;16.75;5.30;;;563.20;2432.00;;;;;;4935260;29;20020;-72
2023/07/09 00:38:54;;;;;;;10.02;4.65;;;563.20;2432.00;;;;;;4938481;29;20194;-73
2023/07/09 00:41:22;;;;;;;7.53;5.28;;;563.20;2432.00;;;;;;4938678;29;20145;-72
2023/07/09 00:43:49;;;;;;;11.27;5.78;;;538.50;2406.40;;;;;;4938532;29;20027;-72
2023/07/09 00:46:25;;;;;;;13.23;4.70;;;538.40;2406.40;;;;;;4938500;29;20205;-72
2023/07/09 00:48:59;;;;;;;12.20;4.75;;;538.30;2406.40;;;;;;4938545;29;20155;-72
2023/07/09 00:51:27;;;;;;;8.93;5.03;;;538.30;2406.40;;;;;;4938701;29;20115;-73
2023/07/09 00:54:01;;;;;;;10.25;5.60;;;538.30;2406.40;;;;;;4938490;29;20482;-73
2023/07/09 00:56:38;;;;;;;10.38;4.50;;;538.30;2406.40;;;;;;4938412;29;20082;-73
2023/07/09 00:59:11;;;;;;;12.93;4.85;;;538.30;2406.40;;;;;;4946515;28;20039;-77
2023/07/09 01:01:40;;;;;;;11.32;4.80;;;538.20;2406.40;;;;;;4959855;28;20028;-72
2023/07/09 01:04:08;;;;;;;13.15;4.75;;;538.30;2406.40;;;;;;4967114;28;20023;-73
2023/07/09 01:06:39;;;;;;;11.05;4.88;;;538.30;2406.40;;;;;;4957694;29;20027;-73
2023/07/09 01:09:07;;;;;;;8.55;4.55;;;538.40;2406.40;;;;;;4939996;29;20432;-73
2023/07/09 01:11:33;;;;;;;14.20;5.07;;;538.40;2406.40;;;;;;4956760;29;20011;-74
2023/07/09 01:14:02;;;;;;;10.43;4.35;;;538.40;2406.40;;;;;;4956841;28;20065;-74
2023/07/09 01:16:32;;;;;;;5.88;4.13;;;538.50;2406.40;;;;;;4957033;28;20031;-74
2023/07/09 01:18:58;;;;;;;10.90;4.57;;;538.50;2406.40;;;;;;4957017;29;20035;-74
2023/07/09 01:21:24;;;;;;;12.48;4.72;;;563.20;2432.00;;;;;;4956837;28;20030;-73
2023/07/09 01:23:54;;;;;;;5.10;3.55;;;563.20;2432.00;;;;;;4956998;29;20024;-74
2023/07/09 01:26:26;;;;;;;12.77;4.70;;;563.20;2432.00;;;;;;4956828;28;20532;-74
2023/07/09 01:28:56;;;;;;;9.27;4.65;;;563.20;2432.00;;;;;;4956939;29;20028;-73
2023/07/09 01:31:23;;;;;;;9.38;4.68;;;563.20;2432.00;;;;;;4956817;29;20456;-74
2023/07/09 01:33:49;;;;;;;12.98;4.65;;;563.30;2432.00;;;;;;4956874;29;20019;-76
2023/07/09 01:36:23;;;;;;;14.68;4.32;;;563.40;2432.00;;;;;;4956831;29;20027;-75
2023/07/09 01:38:51;;;;;;;19.92;6.47;;;563.40;2432.00;;;;;;4956683;29;20031;-74
2023/07/09 01:41:19;;;;;;;16.83;5.45;;;563.50;2432.00;;;;;;4956674;29;20070;-74
2023/07/09 01:43:45;;;;;;;8.25;3.90;;;563.50;2432.00;;;;;;4956255;28;20031;-81
2023/07/09 01:46:12;;;;;;;10.23;5.20;;;563.40;2432.00;;;;;;4944047;29;20110;-74
2023/07/09 01:48:42;;;;;;;21.85;6.55;;;563.50;2432.00;;;;;;4956061;28;20020;-75
2023/07/09 01:51:16;;;;;;;17.25;6.20;;;563.50;2432.00;;;;;;4956679;29;20035;-74
2023/07/09 01:53:44;;;;;;;12.73;4.55;;;563.40;2432.00;;;;;;4956177;28;20050;-74
2023/07/09 01:56:10;;;;;;;9.43;5.18;;;563.50;2432.00;;;;;;4956616;29;20034;-74
2023/07/09 01:58:41;;;;;;;11.68;5.40;;;563.30;2432.00;;;;;;4956037;29;20042;-74
2023/07/09 02:01:07;;;;;;;8.00;4.60;;;563.20;2432.00;;;;;;4956173;29;20023;-73
2023/07/09 02:03:33;;;;;;;11.18;4.80;;;563.20;2432.00;;;;;;4956221;28;20637;-74
2023/07/09 02:05:59;;;;;;;10.60;5.32;;;538.40;2406.40;;;;;;4956261;29;20019;-74
2023/07/09 02:08:25;;;;;;;8.60;5.03;;;538.30;2406.40;;;;;;4956088;28;20105;-74
2023/07/09 02:10:51;;;;;;;12.50;5.25;;;538.30;2406.40;;;;;;4956275;29;20442;-73
2023/07/09 02:13:17;;;;;;;13.18;5.30;;;538.20;2406.40;;;;;;4955485;28;20054;-81
2023/07/09 02:15:44;;;;;;;17.42;5.28;;;538.00;2406.40;;;;;;4956159;29;20094;-76
2023/07/09 02:18:10;;;;;;;10.23;5.78;;;538.20;2406.40;;;;;;4955762;28;20066;-74
2023/07/09 02:20:36;;;;;;;10.57;5.65;;;538.10;2406.40;;;;;;4956213;29;20075;-77
2023/07/09 02:23:03;;;;;;;14.20;6.38;;;537.70;2406.40;;;;;;4955755;29;20417;-75
2023/07/09 02:25:28;;;;;;;8.75;5.40;;;537.60;2406.40;;;;;;4955851;28;20071;-74
2023/07/09 02:27:54;;;;;;;18.25;6.25;;;537.60;2406.40;;;;;;4955591;29;20023;-74
2023/07/09 02:30:20;;;;;;;16.65;5.45;;;537.70;2406.40;;;;;;4955981;28;20123;-73
2023/07/09 02:32:45;;;;;;;23.73;7.15;;;537.90;2406.40;;;;;;4955788;29;20020;-73
2023/07/09 02:35:11;;;;;;;37.80;12.52;;;537.80;2406.40;;;;;;4955659;29;20027;-73
2023/07/09 02:37:37;;;;;;;43.63;14.77;;;537.80;2406.40;;;;;;4957814;28;20032;-75
2023/07/09 02:40:04;;;;;;;41.63;14.60;;;537.80;2406.40;;;;;;4966197;28;20560;-74
2023/07/09 02:42:30;;;;;;;33.80;14.13;;;538.00;2406.40;;;;;;4955136;29;20042;-73
2023/07/09 02:44:55;;;;;;;29.58;10.98;;;538.00;2406.40;;;;;;4955497;28;20023;-79
2023/07/09 02:47:21;;;;;;;17.02;6.93;;;537.80;2406.40;;;;;;4968279;28;20491;-75
2023/07/09 02:49:47;;;;;;;25.27;5.95;;;538.00;2406.40;;;;;;4955607;29;20030;-74
2023/07/09 02:52:13;;;;;;;12.18;5.10;;;538.00;2406.40;;;;;;4955312;28;20023;-74
2023/07/09 02:54:39;;;;;;;31.80;12.88;;;538.00;2406.40;;;;;;4955546;29;20062;-75
2023/07/09 02:57:05;;;;;;;29.23;10.88;;;538.00;2406.40;;;;;;4955085;28;20540;-73
2023/07/09 02:59:32;;;;;;;18.38;8.38;;;537.90;2406.40;;;;;;4955046;29;20040;-74
2023/07/09 03:02:00;;;;;;;12.48;6.18;;;538.00;2406.40;;;;;;4955059;28;20023;-75
2023/07/09 03:04:26;;;;;;;9.85;4.85;;;538.00;2406.40;;;;;;4955368;29;20034;-79
2023/07/09 03:06:52;;;;;;;10.65;4.80;;;538.10;2406.40;;;;;;4955035;28;20390;-75
2023/07/09 03:09:18;;;;;;;7.47;4.35;;;538.10;2406.40;;;;;;4955463;29;20153;-75
2023/07/09 03:11:44;;;;;;;11.40;4.90;;;538.20;2406.40;;;;;;4954821;28;20061;-74
2023/07/09 03:14:10;;;;;;;13.35;5.85;;;538.10;2406.40;;;;;;4954764;29;20095;-74
2023/07/09 03:16:37;;;;;;;13.52;4.80;;;538.00;2406.40;;;;;;4955232;29;20028;-74
2023/07/09 03:19:04;;;;;;;13.10;5.40;;;538.00;2406.40;;;;;;4954931;29;20097;-75
2023/07/09 03:21:30;;;;;;;10.93;5.90;;;537.90;2406.40;;;;;;4955243;29;20478;-74
2023/07/09 03:23:57;;;;;;;11.27;4.68;;;538.00;2406.40;;;;;;4937954;29;20034;-75
2023/07/09 03:26:25;;;;;;;17.38;6.82;;;537.90;2406.40;;;;;;4954854;28;20011;-73
2023/07/09 03:28:51;;;;;;;19.05;5.38;;;537.90;2406.40;;;;;;4937523;29;20058;-75
2023/07/09 03:31:16;;;;;;;8.45;5.22;;;537.90;2406.40;;;;;;4954768;28;20031;-81
2023/07/09 03:33:42;;;;;;;15.65;5.15;;;537.80;2406.40;;;;;;4955025;28;20020;-75
2023/07/09 03:36:08;;;;;;;10.55;5.07;;;537.70;2406.40;;;;;;4954775;28;20034;-80
2023/07/09 03:38:34;;;;;;;10.32;5.03;;;537.80;2406.40;;;;;;4954897;28;20517;-78
2023/07/09 03:40:59;;;;;;;21.90;8.45;;;537.80;2406.40;;;;;;4954686;28;20031;-80
2023/07/09 03:43:25;;;;;;;9.63;4.70;;;537.90;2406.40;;;;;;4954591;29;20110;-74
2023/07/09 03:45:51;;;;;;;11.40;5.15;;;538.00;2406.40;;;;;;4954839;29;20031;-77
2023/07/09 03:48:19;;;;;;;11.80;4.68;;;538.00;2406.40;;;;;;4937852;29;20477;-74
2023/07/09 03:50:46;;;;;;;9.75;5.07;;;538.00;2406.40;;;;;;4954899;29;20049;-74
2023/07/09 03:53:13;;;;;;;15.75;4.55;;;537.90;2406.40;;;;;;4937243;29;20035;-74
2023/07/09 03:55:38;;;;;;;8.82;4.80;;;537.80;2406.40;;;;;;4954772;29;20026;-81
2023/07/09 03:58:04;;;;;;;16.85;6.65;;;538.00;2406.40;;;;;;4954713;29;20031;-74
2023/07/09 04:00:31;;;;;;;12.00;5.80;;;538.00;2406.40;;;;;;4937233;29;20565;-74
2023/07/09 04:02:56;;;;;;;8.30;5.40;;;538.00;2406.40;;;;;;4954912;29;20098;-74
2023/07/09 04:05:23;;;;;;;6.68;4.80;;;538.00;2406.40;;;;;;4954526;28;20031;-73
2023/07/09 04:07:49;;;;;;;8.65;5.00;;;538.00;2406.40;;;;;;4954694;29;20059;-74
2023/07/09 04:10:15;;;;;;;12.50;5.78;;;538.00;2406.40;;;;;;4954737;29;20481;-74
2023/07/09 04:12:41;;;;;;;15.88;5.00;;;538.00;2406.40;;;;;;4955883;28;20039;-74
2023/07/09 04:15:07;;;;;;;13.05;4.50;;;538.00;2406.40;;;;;;4957776;28;20023;-74
2023/07/09 04:17:33;;;;;;;10.18;4.68;;;538.00;2406.40;;;;;;4958221;28;20035;-74
2023/07/09 04:19:59;;;;;;;8.90;4.97;;;538.10;2406.40;;;;;;4957949;28;20448;-74
2023/07/09 04:22:25;;;;;;;11.10;5.18;;;538.20;2406.40;;;;;;4954712;28;20051;-73
2023/07/09 04:24:52;;;;;;;12.00;5.05;;;538.30;2406.40;;;;;;4946908;29;20046;-73
2023/07/09 04:27:18;;;;;;;11.15;5.70;;;538.50;2406.40;;;;;;4956827;28;20465;-73
2023/07/09 04:29:44;;;;;;;17.27;7.55;;;538.40;2406.40;;;;;;4953015;28;20045;-73
2023/07/09 04:32:14;;;;;;;15.07;7.18;;;538.50;2406.40;;;;;;4953478;29;20027;-74
2023/07/09 04:34:40;;;;;;;37.50;14.32;;;538.50;2406.40;;;;;;4949592;29;20034;-72
2023/07/09 04:37:12;;;;;;;47.03;16.63;;;563.30;2432.00;;;;;;4950101;28;20031;-73
2023/07/09 04:39:39;;;;;;;11.30;6.35;;;563.40;2432.00;;;;;;4953852;28;20094;-72
2023/07/09 04:42:12;;;;;;;15.20;5.47;;;563.40;2432.00;;;;;;4956064;28;20031;-72
2023/07/09 04:44:38;;;;;;;23.15;8.95;;;563.40;2432.00;;;;;;4944690;28;20032;-74
2023/07/09 04:47:04;;;;;;;31.35;12.07;;;563.60;2432.00;;;;;;4950417;28;20016;-72
2023/07/09 04:49:29;;;;;;;21.55;9.68;;;563.60;2432.00;;;;;;4938327;29;20036;-72
2023/07/09 04:51:56;;;;;;;9.73;5.68;;;563.70;2432.00;;;;;;4952297;28;20086;-74
2023/07/09 04:54:23;;;;;;;16.90;5.10;;;563.70;2432.00;;;;;;4949947;28;20496;-75
2023/07/09 04:56:49;;;;;;;11.57;5.70;;;563.70;2432.00;;;;;;4955300;29;20070;-74
2023/07/09 04:59:15;;;;;;;13.23;5.63;;;563.80;2432.00;;;;;;4955187;28;20519;-74
2023/07/09 05:01:41;;;;;;;12.82;5.53;;;564.00;2432.00;;;;;;4955550;29;20027;-76
2023/07/09 05:04:07;;;;;;;7.57;4.95;;;564.00;2432.00;;;;;;4934025;29;20118;-75
2023/07/09 05:06:33;;;;;;;10.77;5.65;;;564.00;2432.00;;;;;;4939561;29;20027;-75
2023/07/09 05:08:58;;;;;;;17.08;6.90;;;564.10;2432.00;;;;;;4933063;29;20118;-74
2023/07/09 05:11:24;;;;;;;13.98;6.57;;;588.80;2432.00;;;;;;4954981;29;20542;-74
2023/07/09 05:13:50;;;;;;;300.42;45.30;;;564.10;2432.00;;;;;;4952300;29;20149;-74
2023/07/09 05:16:16;;;;;;;170.18;29.70;;;588.80;2432.00;;;;;;4939370;29;20020;-72
2023/07/09 05:18:43;;;;;;;16.27;6.80;;;588.80;2432.00;;;;;;4933012;29;20036;-73
2023/07/09 05:21:08;;;;;;;69.95;20.88;;;564.10;2432.00;;;;;;4951341;29;20031;-71
2023/07/09 05:23:34;;;;;;;18.45;7.35;;;564.10;2432.00;;;;;;4953854;28;20083;-72
2023/07/09 05:26:02;;;;;;;41.65;12.57;;;588.80;2432.00;;;;;;4950381;29;20103;-73
2023/07/09 05:28:29;;;;;;;30.23;8.27;;;588.90;2432.00;;;;;;4953710;29;20023;-72
2023/07/09 05:30:55;;;;;;;24.42;8.60;;;588.90;2432.00;;;;;;4948530;29;20054;-74
2023/07/09 05:33:21;;;;;;;57.72;17.52;;;589.10;2432.00;;;;;;4946895;29;20500;-73
2023/07/09 05:35:47;;;;;;;216.45;52.38;;;589.10;2432.00;;;;;;4937539;29;20490;-73
2023/07/09 05:38:14;;;;;;;20.40;8.82;;;589.20;2432.00;;;;;;4949260;29;20059;-73
2023/07/09 05:40:40;;;;;;;19.45;6.82;;;589.30;2432.00;;;;;;4950293;29;20457;-72
2023/07/09 05:43:06;;;;;;;13.77;6.47;;;589.40;2432.00;;;;;;4946278;28;20028;-72
2023/07/09 05:45:32;;;;;;;14.77;5.88;;;589.50;2432.00;;;;;;4954345;29;20027;-72
2023/07/09 05:47:58;;;;;;;60.80;15.27;;;589.60;2432.00;;;;;;4949649;29;20043;-72
2023/07/09 05:50:24;;;;;;;16.15;6.28;;;589.70;2432.00;;;;;;4953431;29;20065;-74
2023/07/09 05:52:50;;;;;;;32.75;8.43;;;614.40;2380.80;;;;;;4948400;28;20023;-72
2023/07/09 05:55:16;;;;;;;59.88;18.17;;;614.50;2355.20;;;;;;4953610;29;20098;-74
2023/07/09 05:57:41;;;;;;;50.05;14.68;;;614.60;2380.80;;;;;;4950978;28;20039;-73
2023/07/09 06:00:08;;;;;;;10.25;5.15;;;614.70;2304.00;;;;;;4948275;29;20035;-73
2023/07/09 06:02:34;;;;;;;10.90;4.53;;;614.80;2201.60;;;;;;4952226;29;20110;-71
2023/07/09 06:04:59;;;;;;;10.60;5.00;;;614.90;2150.40;;;;;;4930033;29;20103;-73
2023/07/09 06:07:25;;;;;;;12.02;5.63;;;615.00;2176.00;;;;;;4946550;29;20027;-75
2023/07/09 06:09:52;;;;;;;13.20;5.60;;;615.00;2099.20;;;;;;4938223;29;20090;-74
2023/07/09 06:12:19;;;;;;;9.30;4.65;;;615.00;2073.60;;;;;;4948800;29;20027;-75
2023/07/09 06:14:45;;;;;;;15.95;5.03;;;615.10;2099.20;;;;;;4953147;29;20050;-72
2023/07/09 06:17:12;;;;;;;9.70;4.80;;;615.20;2099.20;;;;;;4946108;29;20034;-71
2023/07/09 06:19:38;;;;;;;9.65;3.85;;;640.00;2073.60;;;;;;4950819;29;20081;-73
2023/07/09 06:22:04;;;;;;;10.48;4.65;;;640.00;2073.60;;;;;;4950329;29;20016;-72
2023/07/09 06:24:30;;;;;;;14.52;4.43;;;640.10;1996.80;;;;;;4953443;29;20490;-72
2023/07/09 06:26:56;;;;;;;11.43;5.25;;;640.20;2048.00;;;;;;4952179;28;20023;-73
2023/07/09 06:29:21;;;;;;;9.40;3.75;;;640.40;2048.00;;;;;;4937662;29;20038;-74
2023/07/09 06:31:47;;;;;;;9.20;3.67;;;640.50;1945.60;;;;;;4949446;29;20027;-73
2023/07/09 06:34:13;;;;;;;8.27;3.90;;;640.60;2022.40;;;;;;4951167;29;20027;-73
2023/07/09 06:36:38;;;;;;;7.65;3.90;;;640.70;1945.60;;;;;;4940606;29;20585;-73
2023/07/09 06:39:05;;;;;;;11.25;3.95;;;640.80;1920.00;;;;;;4947340;29;20039;-72
2023/07/09 06:41:32;;;;;;;6.68;3.92;;;665.60;1894.40;;;;;;4952284;29;20034;-74
2023/07/09 06:43:58;;;;;;;5.75;3.58;;;665.70;1868.80;;;;;;4947700;29;20034;-73
2023/07/09 06:46:24;;;;;;;6.38;3.72;;;665.90;1868.80;;;;;;4946645;29;20024;-74
2023/07/09 06:48:49;;;;;;;6.72;3.40;;;665.90;1843.20;;;;;;4951144;29;20389;-72
2023/07/09 06:51:16;;;;;;;6.57;3.47;;;666.00;1843.20;;;;;;4946888;29;20027;-74
2023/07/09 06:53:44;;;;;;;5.45;3.38;;;666.20;1817.60;;;;;;4949728;29;20443;-75
2023/07/09 06:56:09;;;;;;;6.03;2.85;;;666.30;1792.00;;;;;;4948226;29;20031;-73
2023/07/09 06:58:37;;;;;;;6.30;3.30;;;;;;;;;;4946387;29;20149;-73
2023/07/09 07:01:04;;;;;;;6.53;3.88;;;666.50;1715.20;;;;;;4953070;29;20055;-72
2023/07/09 07:03:32;;;;;;;9.85;3.80;;;691.20;1740.80;;;;;;4945508;29;20024;-72
2023/07/09 07:05:57;;;;;;;8.27;3.63;;;691.40;1689.60;;;;;;4941147;29;20055;-72
2023/07/09 07:08:25;;;;;;;7.95;3.10;;;691.40;1638.40;;;;;;4949511;29;20027;-72
2023/07/09 07:11:05;;;;;;;8.23;3.33;;;691.50;1638.40;;;;;;4947720;29;20123;-72
2023/07/09 07:13:41;;;;;;;6.43;3.45;;;691.60;1638.40;;;;;;4923869;29;20282;-77
2023/07/09 07:16:09;;;;;;;7.78;3.13;;;691.70;1612.80;;;;;;4951746;29;20074;-73
2023/07/09 07:18:35;;;;;;;6.72;3.35;;;691.80;1612.80;;;;;;4947434;29;20056;-72
2023/07/09 07:21:01;;;;;;;8.82;4.03;;;691.80;1587.20;;;;;;4949551;29;20031;-76
2023/07/09 07:23:27;;;;;;;8.63;3.28;;;691.90;1587.20;;;;;;4952785;29;20051;-77
2023/07/09 07:25:54;;;;;;;6.03;3.72;;;691.90;1536.00;;;;;;4948697;29;20024;-77
2023/07/09 07:28:20;;;;;;;12.00;3.95;;;692.00;1536.00;;;;;;4950525;28;20030;-73
2023/07/09 07:30:46;;;;;;;10.60;3.63;;;716.80;1536.00;;;;;;4950850;29;20030;-73
2023/07/09 07:33:14;;;;;;;7.47;4.25;;;716.90;1766.40;;;;;;4949364;29;20024;-73
2023/07/09 07:35:39;;;;;;;6.20;4.15;;;717.10;1561.60;;;;;;4946092;29;20094;-72
2023/07/09 07:38:05;;;;;;;8.05;3.47;;;717.20;1536.00;;;;;;4947044;29;20111;-74
2023/07/09 07:40:32;;;;;;;12.70;3.72;;;717.30;1510.40;;;;;;4948578;29;20040;-73
2023/07/09 07:42:57;;;;;;;6.35;3.60;;;717.30;1484.80;;;;;;4944263;29;20028;-72
2023/07/09 07:45:23;;;;;;;5.13;3.20;;;717.40;1536.00;;;;;;4942054;29;20032;-75
2023/07/09 07:47:51;;;;;;;4.88;3.50;;;717.50;1484.80;;;;;;4950043;29;20055;-73
2023/07/09 07:50:17;;;;;;;6.13;3.67;;;717.50;1433.60;;;;;;4950644;29;20114;-72
2023/07/09 07:52:42;;;;;;;7.32;3.78;;;717.70;1459.20;;;;;;4933443;29;20103;-73
2023/07/09 07:55:08;;;;;;;5.70;4.20;;;742.40;1484.80;;;;;;4950714;29;20098;-72
2023/07/09 07:57:35;;;;;;;10.30;3.80;;;742.40;1459.20;;;;;;4951758;28;20023;-70
2023/07/09 08:00:01;;;;;;;8.30;4.43;;;742.50;1459.20;;;;;;4953157;28;20038;-71
2023/07/09 08:02:27;;;;;;;6.82;4.10;;;742.50;1433.60;;;;;;4936847;29;20028;-70
2023/07/09 08:04:53;;;;;;;12.07;7.65;;;742.60;1408.00;;;;;;4954499;29;20023;-70
2023/07/09 08:07:19;;;;;;;9.25;6.80;;;742.70;1459.20;;;;;;4953525;29;20020;-71
2023/07/09 08:09:46;;;;;;;9.73;4.10;;;742.80;1408.00;;;;;;4931154;29;20037;-78
2023/07/09 08:12:13;;;;;;;26.50;16.17;;;742.80;1459.20;;;;;;4950857;29;20106;-75
2023/07/09 08:14:40;;;;;;;10.88;5.60;;;742.80;1408.00;;;;;;4935135;29;20054;-72
2023/07/09 08:17:07;;;;;;;4.38;2.70;;;742.90;1408.00;;;;;;4952429;28;20063;-74
2023/07/09 08:19:33;;;;;;;10.35;3.08;;;;;;;;;;4950619;29;20043;-72
2023/07/09 08:21:59;;;;;;;6.40;3.13;;;743.00;1382.40;;;;;;4956537;29;20027;-71
2023/07/09 08:24:24;;;;;;;5.05;3.33;;;743.10;1356.80;;;;;;4946204;28;20024;-72
2023/07/09 08:26:50;;;;;;;6.38;3.38;;;743.10;1408.00;;;;;;4954817;28;20027;-74
2023/07/09 08:29:16;;;;;;;8.80;5.85;;;743.10;1331.20;;;;;;4951556;28;20453;-72
2023/07/09 08:31:42;;;;;;;15.60;5.97;;;743.10;1356.80;;;;;;4951760;28;20028;-74
2023/07/09 08:34:08;;;;;;;8.70;3.85;;;743.10;1356.80;;;;;;4954414;28;20437;-72
2023/07/09 08:36:34;;;;;;;7.57;3.55;;;743.10;1382.40;;;;;;4950392;29;20020;-72
2023/07/09 08:39:03;;;;;;;7.60;4.20;;;743.10;1356.80;;;;;;4947678;28;20039;-72
2023/07/09 08:41:34;;;;;;;7.80;3.65;;;743.20;1356.80;;;;;;4953339;29;20030;-73
2023/07/09 08:44:09;;;;;;;10.40;4.90;;;743.30;1331.20;;;;;;4951568;28;20074;-74
2023/07/09 08:46:53;;;;;;;9.65;3.58;;;743.30;1305.60;;;;;;4953255;29;20037;-77
2023/07/09 08:49:23;;;;;;;6.65;3.22;;;768.00;1280.00;;;;;;4952345;28;20031;-71
2023/07/09 08:51:50;;;;;;;24.58;5.35;;;768.10;1280.00;;;;;;4952609;28;20019;-71
2023/07/09 08:54:36;;;;;;;7.93;3.58;;;768.10;1280.00;;;;;;4932659;29;20122;-71
2023/07/09 08:57:25;;;;;;;8.70;3.60;;;768.10;1280.00;;;;;;4941580;29;20035;-74
2023/07/09 08:59:57;;;;;;;6.25;3.65;;;768.10;1305.60;;;;;;4951580;28;20528;-71
2023/07/09 09:02:41;;;;;;;8.15;4.00;;;768.10;1280.00;;;;;;4950790;29;20452;-70
2023/07/09 09:05:09;;;;;;;6.72;3.47;;;768.10;1305.60;;;;;;4951307;29;20520;-70
2023/07/09 09:07:44;;;;;;;5.60;3.95;;;768.20;1305.60;;;;;;4947633;29;20023;-71
2023/07/09 09:10:28;;;;;;;6.03;3.60;;;768.20;1305.60;;;;;;4950239;29;20031;-72
2023/07/09 09:13:09;;;;;;;6.70;3.90;;;768.40;1305.60;;;;;;4946098;28;20031;-71
2023/07/09 09:15:39;;;;;;;8.40;3.15;;;768.40;1305.60;;;;;;4943495;29;20500;-70
2023/07/09 09:18:25;;;;;;;7.28;3.47;;;768.50;1280.00;;;;;;4953993;29;20488;-70
2023/07/09 09:20:57;;;;;;;6.82;3.53;;;768.60;1305.60;;;;;;4930288;29;20075;-70
2023/07/09 09:23:28;;;;;;;7.78;3.80;;;768.60;1280.00;;;;;;4954788;29;20023;-71
2023/07/09 09:25:57;;;;;;;11.18;4.22;;;768.70;1280.00;;;;;;4950331;29;20103;-71
2023/07/09 09:28:25;;;;;;;7.85;3.78;;;768.70;1228.80;;;;;;4953872;28;20059;-70
2023/07/09 09:30:51;;;;;;;8.80;3.83;;;768.70;1254.40;;;;;;4930836;29;20039;-70
2023/07/09 09:33:18;;;;;;;4.95;3.58;;;768.70;1228.80;;;;;;4951549;29;20027;-72
2023/07/09 09:35:45;;;;;;;8.13;4.30;;;768.90;1280.00;;;;;;4950911;29;20034;-70
2023/07/09 09:38:15;;;;;;;4.93;3.45;;;793.70;1331.20;;;;;;4949238;29;20031;-70
2023/07/09 09:40:41;;;;;;;8.45;3.70;;;793.70;1280.00;;;;;;4952702;28;20117;-71
2023/07/09 09:43:32;;;;;;;6.55;4.10;;;793.80;1280.00;;;;;;4950885;29;20102;-73
2023/07/09 09:46:01;;;;;;;6.40;3.88;;;794.00;1280.00;;;;;;4948284;28;20521;-71
2023/07/09 09:48:30;;;;;;;7.80;3.55;;;794.20;1254.40;;;;;;4953695;29;20035;-71
2023/07/09 09:51:00;;;;;;;6.18;3.67;;;794.30;1203.20;;;;;;4949182;28;20050;-71
2023/07/09 09:53:28;;;;;;;6.95;3.60;;;794.40;1177.60;;;;;;4951021;29;20035;-71
2023/07/09 09:55:56;;;;;;;5.40;3.33;;;794.40;1203.20;;;;;;4951989;28;20020;-71
2023/07/09 09:58:28;;;;;;;4.78;3.28;;;794.40;1203.20;;;;;;4949868;29;20205;-71
2023/07/09 10:00:56;;;;;;;6.47;3.60;;;819.30;1228.80;;;;;;4953696;28;20031;-72
2023/07/09 10:03:34;;;;;;;5.50;3.50;;;819.40;1177.60;;;;;;4946779;29;20089;-76
2023/07/09 10:06:05;;;;;;;6.80;3.10;;;819.60;1177.60;;;;;;4949164;29;20019;-71
2023/07/09 10:08:44;;;;;;;5.82;2.92;;;819.80;1177.60;;;;;;4950112;29;20506;-71
2023/07/09 10:11:40;;;;;;;5.10;3.08;;;820.10;1152.00;;;;;;4950230;28;20023;-71
2023/07/09 10:14:13;;;;;;;;;;;820.10;1152.00;;;;;;4945527;28;20059;-71
2023/07/09 10:16:45;;;;;;;5.28;2.97;;;820.10;1126.40;;;;;;4949173;29;19910;-73
2023/07/09 10:19:31;;;;;;;9.82;3.13;;;820.10;1126.40;;;;;;4943819;29;20047;-71
2023/07/09 10:22:00;;;;;;;;;;;819.40;1152.00;;;;;;4953016;29;20126;-76
2023/07/09 10:24:44;;;;;;;5.13;3.22;;;819.30;1177.60;;;;;;4945329;29;19911;-69
2023/07/09 10:27:17;;;;;;;7.70;3.10;;;819.80;1177.60;;;;;;4947487;28;20038;-70
2023/07/09 10:30:19;;;;;;;6.93;2.83;;;820.00;1126.40;;;;;;4947445;28;20473;-72
2023/07/09 10:33:03;;;;;;;8.07;3.00;;;820.10;1126.40;;;;;;4901502;29;20135;-71
2023/07/09 10:35:37;;;;;;;4.47;2.75;;;844.90;1152.00;;;;;;4904448;29;20032;-70
2023/07/09 10:38:14;;;;;;;6.20;3.20;;;845.00;1126.40;;;;;;4901511;29;20272;-71
2023/07/09 10:40:45;;;;;;;5.55;3.05;;;845.20;1126.40;;;;;;4901748;29;20068;-70
2023/07/09 10:43:17;;;;;;;7.40;3.50;;;845.40;1126.40;;;;;;4905664;29;20054;-72
2023/07/09 10:45:47;;;;;;;5.43;3.25;;;845.10;1152.00;;;;;;4907977;29;20498;-74
2023/07/09 10:48:19;;;;;;;4.60;2.90;;;845.40;1126.40;;;;;;4902575;29;20140;-71
2023/07/09 10:50:53;;;;;;;7.07;3.17;;;845.40;1126.40;;;;;;4902446;29;20029;-71
2023/07/09 10:53:42;;;;;;;4.85;3.30;;;845.30;1100.80;;;;;;4905210;29;20072;-73
2023/07/09 10:56:22;;;;;;;6.38;3.15;;;845.40;1100.80;;;;;;4898080;29;20059;-74
2023/07/09 10:59:12;;;;;;;9.82;3.75;;;820.10;1100.80;;;;;;4903870;29;20024;-75
2023/07/09 11:01:45;;;;;;;5.13;3.22;;;819.60;1100.80;;;;;;4900801;29;20044;-70
2023/07/09 11:04:40;;;;;;;4.60;3.20;;;820.10;1100.80;;;;;;4897199;29;20059;-72
2023/07/09 11:07:15;;;;;;;9.02;3.70;;;845.20;1152.00;;;;;;4899231;29;20091;-75
2023/07/09 11:09:45;;;;;;;5.13;3.45;;;845.40;1075.20;;;;;;4934746;29;20452;-71
2023/07/09 11:12:26;;;;;;;5.78;3.33;;;845.60;1100.80;;;;;;4951249;29;20050;-72
2023/07/09 11:15:01;;;;;;;6.22;3.20;;;845.60;1126.40;;;;;;4949404;29;20066;-70
2023/07/09 11:17:28;;;;;;;5.47;2.97;;;870.40;1100.80;;;;;;4950904;29;20021;-69
2023/07/09 11:19:57;;;;;;;8.50;3.40;;;845.20;1100.80;;;;;;4950680;29;20126;-71
2023/07/09 11:22:37;;;;;;;4.35;3.00;;;820.10;1075.20;;;;;;4949397;29;20027;-70
2023/07/09 11:25:06;;;;;;;6.18;3.78;;;820.10;1126.40;;;;;;4948513;29;20379;-69
2023/07/09 11:27:32;;;;;;;5.65;2.85;;;845.20;1100.80;;;;;;4952120;29;20023;-71
2023/07/09 11:29:59;;;;;;;4.60;2.95;;;845.50;1100.80;;;;;;4949041;28;20382;-71
2023/07/09 11:32:27;;;;;;;3.72;2.90;;;845.70;1024.00;;;;;;4948377;29;20028;-70
2023/07/09 11:34:53;;;;;;;7.47;3.20;;;845.50;1049.60;;;;;;4952460;29;20047;-70
2023/07/09 11:37:26;;;;;;;7.50;3.67;;;844.90;1075.20;;;;;;4949278;29;20098;-72
2023/07/09 11:39:52;;;;;;;6.25;3.38;;;844.90;1126.40;;;;;;4945022;28;20040;-72
2023/07/09 11:42:34;;;;;;;5.68;2.83;;;845.30;1100.80;;;;;;4949765;29;20087;-72
2023/07/09 11:45:06;;;;;;;6.28;2.83;;;845.50;1075.20;;;;;;4947694;29;20495;-71
2023/07/09 11:48:08;;;;;;;4.75;3.00;;;870.40;1075.20;;;;;;4944040;29;20015;-71
2023/07/09 11:50:46;;;;;;;7.38;3.20;;;870.50;1024.00;;;;;;4937193;28;20040;-70
2023/07/09 11:53:46;;;;;;;6.85;2.85;;;870.70;1024.00;;;;;;4945381;29;20035;-70
2023/07/09 11:56:12;;;;;;;7.28;3.17;;;870.70;1049.60;;;;;;4869494;29;20049;-71
2023/07/09 11:58:57;;;;;;;7.30;2.55;;;870.90;1049.60;;;;;;4874283;29;20372;-75
2023/07/09 12:01:32;;;;;;;7.05;2.85;;;870.70;998.40;;;;;;4875385;29;20044;-74
2023/07/09 12:03:58;;;;;;;5.47;3.15;;;870.50;998.40;;;;;;4874135;29;20028;-74
2023/07/09 12:06:31;;;;;;;7.78;3.30;;;870.80;1024.00;;;;;;4869270;29;20140;-72
2023/07/09 12:08:57;;;;;;;7.97;2.90;;;870.90;998.40;;;;;;4874657;29;20057;-72
2023/07/09 12:11:24;;;;;;;6.38;3.00;;;871.10;972.80;;;;;;4873986;29;20499;-72
2023/07/09 12:13:50;;;;;;;4.70;2.97;;;871.20;972.80;;;;;;4876020;29;20133;-70
2023/07/09 12:16:38;;;;;;;6.65;3.45;;;871.20;972.80;;;;;;4873525;29;20536;-76
2023/07/09 12:19:04;;;;;;;6.15;3.42;;;871.30;998.40;;;;;;4871317;29;20053;-71
2023/07/09 12:21:32;;;;;;;5.75;3.15;;;871.20;998.40;;;;;;4870443;29;20029;-69
2023/07/09 12:23:58;;;;;;;3.80;2.88;;;871.20;998.40;;;;;;4873062;29;20483;-70
2023/07/09 12:26:23;;;;;;;4.93;2.92;;;871.10;972.80;;;;;;4871835;29;20142;-74